createdAt,value
2018-11-23T00:00:21.728Z,381.20
2018-11-23T00:02:50.533Z,391.38
2018-11-23T00:05:19.122Z,372.77
2018-11-23T00:07:47.928Z,402.63
2018-11-23T00:10:17.482Z,381.27
2018-11-23T00:12:45.938Z,431.20
2018-11-23T00:15:15.554Z,424.12
2018-11-23T00:17:44.020Z,366.12
2018-11-23T00:20:14.293Z,385.93
2018-11-23T00:22:42.752Z,357.65
2018-11-23T00:25:13.166Z,348.55
2018-11-23T00:27:41.701Z,354.45
2018-11-23T00:30:11.831Z,364.38
2018-11-23T00:32:40.523Z,370.67
2018-11-23T00:35:10.689Z,364.75
2018-11-23T00:37:38.996Z,361.23
2018-11-23T00:40:09.400Z,388.48
2018-11-23T00:42:37.873Z,361.32
2018-11-23T00:45:07.805Z,358.73
2018-11-23T00:47:36.293Z,350.27
2018-11-23T00:50:04.957Z,372.37
2018-11-23T00:52:33.272Z,363.60
2018-11-23T00:55:01.602Z,388.95
2018-11-23T00:57:29.905Z,352.98
2018-11-23T00:59:58.215Z,360.17
2018-11-23T01:02:26.566Z,351.70
2018-11-23T01:04:54.871Z,367.30
2018-11-23T01:07:23.211Z,360.90
2018-11-23T01:09:51.513Z,349.25
2018-11-23T01:12:19.837Z,358.35
2018-11-23T01:14:48.156Z,357.12
2018-11-23T01:17:16.480Z,356.57
2018-11-23T01:19:44.790Z,371.70
2018-11-23T01:22:13.116Z,388.35
2018-11-23T01:24:41.431Z,361.85
2018-11-23T01:27:09.801Z,364.82
2018-11-23T01:29:38.105Z,361.07
2018-11-23T01:32:06.432Z,365.43
2018-11-23T01:34:34.748Z,372.02
2018-11-23T01:37:03.084Z,371.82
2018-11-23T01:39:31.403Z,384.43
2018-11-23T01:41:59.749Z,370.27
2018-11-23T01:44:28.099Z,357.35
2018-11-23T01:46:56.456Z,355.65
2018-11-23T01:49:24.760Z,378.23
2018-11-23T01:51:53.099Z,382.95
2018-11-23T01:54:21.405Z,400.65
2018-11-23T01:56:49.736Z,373.93
2018-11-23T01:59:18.053Z,378.40
2018-11-23T02:01:46.377Z,379.32
2018-11-23T02:04:14.712Z,384.50
2018-11-23T02:06:43.056Z,369.43
2018-11-23T02:09:11.395Z,369.05
2018-11-23T02:11:39.737Z,377.43
2018-11-23T02:14:08.055Z,371.30
2018-11-23T02:16:36.395Z,364.23
2018-11-23T02:19:04.943Z,377.68
2018-11-23T02:21:33.281Z,380.00
2018-11-23T02:24:01.582Z,379.98
2018-11-23T02:26:30.040Z,393.42
2018-11-23T02:28:58.432Z,396.20
2018-11-23T02:31:31.721Z,376.32
2018-11-23T02:34:00.037Z,363.90
2018-11-23T02:36:28.362Z,416.27
2018-11-23T02:38:56.748Z,383.38
2018-11-23T02:41:25.073Z,402.95
2018-11-23T02:43:53.420Z,376.70
2018-11-23T02:46:21.760Z,391.30
2018-11-23T02:48:50.069Z,379.65
2018-11-23T02:51:18.564Z,384.80
2018-11-23T02:53:47.433Z,377.30
2018-11-23T02:56:15.777Z,374.10
2018-11-23T02:58:44.105Z,378.20
2018-11-23T03:01:12.586Z,399.98
2018-11-23T03:03:40.912Z,400.32
2018-11-23T03:06:09.249Z,382.23
2018-11-23T03:08:37.614Z,381.20
2018-11-23T03:11:06.356Z,373.30
2018-11-23T03:13:34.663Z,376.35
2018-11-23T03:16:03.009Z,392.25
2018-11-23T03:18:31.325Z,370.27
2018-11-23T03:20:59.629Z,380.95
2018-11-23T03:23:27.955Z,367.60
2018-11-23T03:25:56.273Z,389.90
2018-11-23T03:28:24.625Z,374.10
2018-11-23T03:30:52.937Z,377.10
2018-11-23T03:33:21.256Z,382.10
2018-11-23T03:35:49.561Z,376.23
2018-11-23T03:38:17.906Z,377.75
2018-11-23T03:40:46.216Z,376.20
2018-11-23T03:43:14.557Z,383.32
2018-11-23T03:45:42.866Z,381.10
2018-11-23T03:48:11.204Z,387.08
2018-11-23T03:50:39.518Z,377.32
2018-11-23T03:53:07.849Z,374.30
2018-11-23T03:55:36.173Z,369.45
2018-11-23T03:58:04.851Z,371.20
2018-11-23T04:00:33.149Z,384.30
2018-11-23T04:03:01.477Z,377.80
2018-11-23T04:05:29.806Z,380.70
2018-11-23T04:07:58.138Z,362.32
2018-11-23T04:10:26.465Z,382.35
2018-11-23T04:12:54.792Z,364.72
2018-11-23T04:15:23.101Z,376.75
2018-11-23T04:17:51.447Z,379.20
2018-11-23T04:20:19.755Z,372.57
2018-11-23T04:22:48.162Z,379.07
2018-11-23T04:25:16.492Z,364.35
2018-11-23T04:27:44.829Z,367.60
2018-11-23T04:30:17.261Z,422.67
2018-11-23T04:32:46.434Z,372.88
2018-11-23T04:35:16.009Z,357.12
2018-11-23T04:37:45.128Z,371.43
2018-11-23T04:40:14.208Z,375.45
2018-11-23T04:42:42.927Z,371.35
2018-11-23T04:45:11.808Z,376.50
2018-11-23T04:47:40.325Z,376.00
2018-11-23T04:50:10.353Z,377.60
2018-11-23T04:52:38.684Z,378.52
2018-11-23T04:55:07.945Z,384.52
2018-11-23T04:57:36.360Z,378.40
2018-11-23T05:00:05.849Z,390.00
2018-11-23T05:02:34.311Z,372.23
2018-11-23T05:05:02.638Z,383.90
2018-11-23T05:07:30.960Z,427.43
2018-11-23T05:09:59.265Z,373.90
2018-11-23T05:12:27.608Z,415.62
2018-11-23T05:14:55.917Z,387.88
2018-11-23T05:17:24.252Z,377.32
2018-11-23T05:19:52.548Z,406.60
2018-11-23T05:22:20.876Z,394.40
2018-11-23T05:24:49.184Z,375.50
2018-11-23T05:27:17.530Z,377.30
2018-11-23T05:29:45.853Z,404.25
2018-11-23T05:32:14.178Z,375.77
2018-11-23T05:34:42.481Z,385.50
2018-11-23T05:37:10.840Z,380.60
2018-11-23T05:39:39.157Z,387.03
2018-11-23T05:42:07.489Z,372.02
2018-11-23T05:44:35.804Z,399.60
2018-11-23T05:47:04.145Z,395.03
2018-11-23T05:49:32.486Z,386.65
2018-11-23T05:52:00.804Z,393.50
2018-11-23T05:54:29.169Z,388.23
2018-11-23T05:56:57.493Z,409.73
2018-11-23T05:59:25.837Z,422.43
2018-11-23T06:01:54.330Z,390.62
2018-11-23T06:04:22.674Z,417.55
2018-11-23T06:06:50.989Z,417.93
2018-11-23T06:09:19.316Z,391.77
2018-11-23T06:11:47.630Z,390.02
2018-11-23T06:14:15.957Z,391.60
2018-11-23T06:16:44.344Z,376.92
2018-11-23T06:19:12.879Z,383.00
2018-11-23T06:21:41.232Z,396.80
2018-11-23T06:24:09.663Z,391.12
2018-11-23T06:26:38.159Z,387.40
2018-11-23T06:29:06.704Z,388.15
2018-11-23T06:31:35.018Z,408.72
2018-11-23T06:34:03.358Z,344.95
2018-11-23T06:36:31.674Z,336.43
2018-11-23T06:39:00.030Z,360.65
2018-11-23T06:41:28.377Z,344.57
2018-11-23T06:43:56.709Z,340.20
2018-11-23T06:46:25.041Z,358.82
2018-11-23T06:48:53.370Z,343.17
2018-11-23T06:51:21.681Z,364.42
2018-11-23T06:53:50.021Z,334.23
2018-11-23T06:56:18.321Z,334.52
2018-11-23T06:58:46.672Z,343.70
2018-11-23T07:01:14.997Z,377.80
2018-11-23T07:03:43.373Z,325.25
2018-11-23T07:06:11.681Z,341.38
2018-11-23T07:08:40.042Z,322.95
2018-11-23T07:11:08.352Z,313.17
2018-11-23T07:13:36.683Z,318.07
2018-11-23T07:16:05.011Z,349.10
2018-11-23T07:18:33.342Z,353.15
2018-11-23T07:21:01.661Z,330.73
2018-11-23T07:23:29.976Z,374.65
2018-11-23T07:25:58.297Z,335.15
2018-11-23T07:28:26.648Z,353.88
2018-11-23T07:30:58.341Z,314.17
2018-11-23T07:33:23.373Z,306.27
2018-11-23T07:35:51.695Z,338.02
2018-11-23T07:38:20.013Z,342.30
2018-11-23T07:40:59.921Z,353.73
2018-11-23T07:43:28.241Z,365.87
2018-11-23T07:45:56.597Z,324.70
2018-11-23T07:48:24.952Z,357.85
2018-11-23T07:50:53.261Z,333.00
2018-11-23T07:53:21.585Z,331.75
2018-11-23T07:55:49.900Z,345.95
2018-11-23T07:58:18.238Z,343.97
2018-11-23T08:00:46.540Z,373.65
2018-11-23T08:03:14.861Z,352.62
2018-11-23T08:05:43.188Z,350.30
2018-11-23T08:08:11.511Z,367.25
2018-11-23T08:10:39.149Z,351.58
2018-11-23T08:13:07.485Z,357.40
2018-11-23T08:15:35.801Z,365.02
2018-11-23T08:18:04.125Z,396.32
2018-11-23T08:20:32.453Z,370.30
2018-11-23T08:23:00.781Z,376.27
2018-11-23T08:25:29.105Z,358.57
2018-11-23T08:27:57.814Z,377.10
2018-11-23T08:30:27.629Z,417.80
2018-11-23T08:32:56.241Z,402.78
2018-11-23T08:35:24.573Z,406.02
2018-11-23T08:37:52.949Z,414.87
2018-11-23T08:40:22.755Z,398.25
2018-11-23T08:42:52.290Z,413.50
2018-11-23T08:45:21.995Z,417.98
2018-11-23T08:47:50.351Z,413.85
2018-11-23T08:50:21.245Z,396.20
2018-11-23T08:52:49.547Z,409.55
2018-11-23T08:55:18.586Z,383.20
2018-11-23T08:57:46.933Z,407.52
2018-11-23T09:00:17.497Z,390.85
2018-11-23T09:02:46.977Z,421.98
2018-11-23T09:05:15.884Z,380.63
2018-11-23T09:07:45.078Z,411.00
2018-11-23T09:10:15.584Z,391.45
2018-11-23T09:12:45.144Z,416.25
2018-11-23T09:15:14.383Z,404.42
2018-11-23T09:17:43.483Z,394.18
2018-11-23T09:20:12.595Z,415.67
2018-11-23T09:22:40.998Z,421.68
2018-11-23T09:25:12.035Z,426.57
2018-11-23T09:27:40.443Z,439.00
2018-11-23T09:30:12.238Z,422.93
2018-11-23T09:32:40.768Z,426.98
2018-11-23T09:35:09.192Z,432.47
2018-11-23T09:37:38.312Z,402.47
2018-11-23T09:40:10.389Z,389.85
2018-11-23T09:42:39.265Z,403.08
2018-11-23T09:45:09.524Z,393.87
2018-11-23T09:47:37.978Z,408.42
2018-11-23T09:50:08.888Z,440.20
2018-11-23T09:52:37.258Z,413.50
2018-11-23T09:55:05.841Z,405.87
2018-11-23T09:57:34.247Z,426.95
2018-11-23T10:00:02.595Z,412.18
2018-11-23T10:02:30.921Z,400.50
2018-11-23T10:04:59.253Z,410.57
2018-11-23T10:07:27.567Z,398.95
2018-11-23T10:09:55.901Z,400.05
2018-11-23T10:12:24.217Z,406.65
2018-11-23T10:14:52.664Z,417.68
2018-11-23T10:17:21.070Z,407.62
2018-11-23T10:19:49.405Z,416.48
2018-11-23T10:22:17.712Z,394.50
2018-11-23T10:24:46.048Z,419.32
2018-11-23T10:27:14.369Z,406.50
2018-11-23T10:29:42.695Z,379.00
2018-11-23T10:32:10.997Z,386.90
2018-11-23T10:34:39.345Z,384.85
2018-11-23T10:37:07.660Z,375.98
2018-11-23T10:39:35.993Z,398.55
2018-11-23T10:42:04.320Z,403.73
2018-11-23T10:44:32.662Z,390.60
2018-11-23T10:47:01.017Z,393.05
2018-11-23T10:49:29.329Z,418.90
2018-11-23T10:51:57.653Z,397.25
2018-11-23T10:54:25.957Z,408.68
2018-11-23T10:56:54.297Z,402.40
2018-11-23T10:59:22.605Z,388.75
2018-11-23T11:01:56.337Z,361.05
2018-11-23T11:04:30.037Z,368.88
2018-11-23T11:07:02.601Z,388.68
2018-11-23T11:09:31.018Z,419.50
2018-11-23T11:11:59.349Z,413.55
2018-11-23T11:14:27.673Z,386.98
2018-11-23T11:16:56.001Z,400.07
2018-11-23T11:19:24.324Z,381.05
2018-11-23T11:21:52.772Z,405.40
2018-11-23T11:24:21.084Z,394.32
2018-11-23T11:26:49.408Z,425.30
2018-11-23T11:29:17.709Z,437.48
2018-11-23T11:31:46.073Z,392.45
2018-11-23T11:34:14.387Z,395.05
2018-11-23T11:36:42.734Z,421.48
2018-11-23T11:39:12.304Z,428.00
2018-11-23T11:41:40.813Z,404.55
2018-11-23T11:44:09.167Z,415.12
2018-11-23T11:46:37.505Z,424.30
2018-11-23T11:49:05.961Z,425.15
2018-11-23T11:51:34.308Z,451.60
2018-11-23T11:54:02.648Z,457.43
2018-11-23T11:56:30.988Z,402.15
2018-11-23T11:58:59.297Z,440.50
2018-11-23T12:01:27.964Z,497.67
2018-11-23T12:03:56.929Z,459.27
2018-11-23T12:06:25.303Z,443.40
2018-11-23T12:08:53.652Z,404.27
2018-11-23T12:11:22.196Z,395.80
2018-11-23T12:13:50.524Z,419.62
2018-11-23T12:16:18.873Z,452.83
2018-11-23T12:18:47.195Z,421.77
2018-11-23T12:21:15.525Z,421.77
2018-11-23T12:23:43.957Z,427.00
2018-11-23T12:26:12.353Z,441.80
2018-11-23T12:28:40.664Z,458.90
2018-11-23T12:31:09.098Z,452.70
2018-11-23T12:33:37.401Z,456.82
2018-11-23T12:36:05.841Z,436.43
2018-11-23T12:38:34.145Z,475.83
2018-11-23T12:41:02.489Z,435.70
2018-11-23T12:43:30.785Z,443.95
2018-11-23T12:45:59.149Z,447.05
2018-11-23T12:48:27.473Z,427.93
2018-11-23T12:50:55.801Z,442.00
2018-11-23T12:53:24.108Z,472.55
2018-11-23T12:55:52.533Z,496.60
2018-11-23T12:58:20.857Z,468.00
2018-11-23T13:00:49.180Z,441.12
2018-11-23T13:03:17.509Z,510.73
2018-11-23T13:05:45.978Z,469.95
2018-11-23T13:08:14.299Z,553.35
2018-11-23T13:10:43.048Z,457.27
2018-11-23T13:13:10.984Z,504.62
2018-11-23T13:15:39.293Z,475.30
2018-11-23T13:18:07.625Z,478.92
2018-11-23T13:20:35.933Z,470.12
2018-11-23T13:23:04.443Z,470.38
2018-11-23T13:25:33.649Z,468.33
2018-11-23T13:28:02.158Z,497.02
2018-11-23T13:30:33.921Z,483.23
2018-11-23T13:33:02.262Z,473.58
2018-11-23T13:35:30.637Z,473.37
2018-11-23T13:37:58.965Z,488.33
2018-11-23T13:40:28.288Z,525.35
2018-11-23T13:42:57.643Z,533.35
2018-11-23T13:45:27.333Z,493.80
2018-11-23T13:47:55.692Z,538.17
2018-11-23T13:50:24.739Z,534.30
2018-11-23T13:52:54.778Z,542.17
2018-11-23T13:55:23.198Z,495.18
2018-11-23T13:57:51.668Z,488.98
2018-11-23T14:00:21.264Z,468.25
2018-11-23T14:02:49.637Z,510.43
2018-11-23T14:05:32.789Z,468.45
2018-11-23T14:08:02.343Z,501.48
2018-11-23T14:10:30.917Z,510.52
2018-11-23T14:12:59.255Z,478.00
2018-11-23T14:15:29.024Z,496.53
2018-11-23T14:17:58.314Z,486.60
2018-11-23T14:20:27.342Z,493.90
2018-11-23T14:22:55.882Z,504.50
2018-11-23T14:25:26.493Z,509.05
2018-11-23T14:27:55.319Z,469.82
2018-11-23T14:30:25.131Z,508.80
2018-11-23T14:32:53.728Z,494.85
2018-11-23T14:35:23.444Z,474.95
2018-11-23T14:37:52.861Z,495.00
2018-11-23T14:40:21.166Z,480.55
2018-11-23T14:42:50.181Z,451.75
2018-11-23T14:45:25.726Z,464.05
2018-11-23T14:47:55.134Z,457.85
2018-11-23T14:50:25.876Z,459.65
2018-11-23T14:52:55.193Z,472.30
2018-11-23T14:55:23.669Z,471.75
2018-11-23T14:57:51.996Z,494.32
2018-11-23T15:00:22.813Z,478.42
2018-11-23T15:02:52.349Z,489.27
2018-11-23T15:05:20.857Z,470.90
2018-11-23T15:07:49.452Z,478.62
2018-11-23T15:10:20.164Z,486.98
2018-11-23T15:12:49.636Z,458.27
2018-11-23T15:15:20.406Z,426.77
2018-11-23T15:17:49.689Z,435.53
2018-11-23T15:20:21.613Z,433.32
2018-11-23T15:22:58.539Z,414.63
2018-11-23T15:25:26.840Z,408.75
2018-11-23T15:27:55.325Z,427.97
2018-11-23T15:30:25.437Z,406.85
2018-11-23T15:32:54.051Z,402.13
2018-11-23T15:35:22.461Z,408.75
2018-11-23T15:37:51.044Z,397.57
2018-11-23T15:40:21.826Z,397.27
2018-11-23T15:42:51.341Z,397.20
2018-11-23T15:45:21.031Z,428.23
2018-11-23T15:47:49.400Z,447.45
2018-11-23T15:50:20.073Z,384.92
2018-11-23T15:52:48.657Z,389.05
2018-11-23T15:55:19.537Z,390.27
2018-11-23T15:57:48.509Z,390.43
2018-11-23T16:00:21.245Z,389.55
2018-11-23T16:02:49.914Z,385.20
2018-11-23T16:05:18.601Z,384.18
2018-11-23T16:07:47.268Z,400.62
2018-11-23T16:10:18.046Z,374.15
2018-11-23T16:12:48.226Z,413.15
2018-11-23T16:15:17.092Z,393.15
2018-11-23T16:17:45.458Z,381.30
2018-11-23T16:20:16.197Z,359.18
2018-11-23T16:22:46.033Z,361.30
2018-11-23T16:25:14.359Z,358.27
2018-11-23T16:27:43.545Z,380.18
2018-11-23T16:30:14.626Z,369.85
2018-11-23T16:32:43.440Z,349.73
2018-11-23T16:35:13.253Z,327.93
2018-11-23T16:37:42.799Z,328.48
2018-11-23T16:40:14.227Z,333.65
2018-11-23T16:42:44.427Z,333.15
2018-11-23T16:45:16.530Z,352.85
2018-11-23T16:47:45.417Z,329.38
2018-11-23T16:50:14.001Z,325.65
2018-11-23T16:52:43.343Z,327.30
2018-11-23T16:55:12.848Z,328.30
2018-11-23T16:57:42.365Z,329.48
2018-11-23T17:00:12.757Z,325.75
2018-11-23T17:02:41.933Z,331.57
2018-11-23T17:05:11.038Z,322.50
2018-11-23T17:07:39.365Z,318.65
2018-11-23T17:10:09.557Z,335.02
2018-11-23T17:12:38.302Z,324.35
2018-11-23T17:15:07.844Z,350.30
2018-11-23T17:17:36.261Z,325.57
2018-11-23T17:20:04.648Z,322.60
2018-11-23T17:22:32.964Z,337.20
2018-11-23T17:25:01.386Z,316.08
2018-11-23T17:27:29.714Z,313.10
2018-11-23T17:29:58.037Z,309.15
2018-11-23T17:32:26.388Z,328.07
2018-11-23T17:34:54.720Z,315.60
2018-11-23T17:37:23.028Z,305.87
2018-11-23T17:39:51.381Z,323.13
2018-11-23T17:42:19.690Z,322.35
2018-11-23T17:44:48.105Z,319.63
2018-11-23T17:47:16.430Z,306.47
2018-11-23T17:49:44.773Z,307.15
2018-11-23T17:52:13.143Z,309.37
2018-11-23T17:54:41.482Z,298.50
2018-11-23T17:57:09.801Z,306.98
2018-11-23T17:59:46.201Z,300.80
2018-11-23T18:02:16.109Z,299.70
2018-11-23T18:04:44.468Z,305.25
2018-11-23T18:07:13.052Z,296.90
2018-11-23T18:09:41.392Z,306.57
2018-11-23T18:12:09.727Z,297.23
2018-11-23T18:14:38.060Z,298.13
2018-11-23T18:17:06.397Z,301.10
2018-11-23T18:19:34.757Z,309.90
2018-11-23T18:22:03.076Z,300.68
2018-11-23T18:24:31.400Z,306.90
2018-11-23T18:26:59.773Z,322.55
2018-11-23T18:29:28.138Z,304.90
2018-11-23T18:31:56.610Z,309.70
2018-11-23T18:34:25.210Z,337.95
2018-11-23T18:36:53.548Z,310.75
2018-11-23T18:39:21.878Z,302.73
2018-11-23T18:41:50.638Z,299.20
2018-11-23T18:44:18.982Z,312.42
2018-11-23T18:46:47.324Z,290.55
2018-11-23T18:49:15.672Z,295.30
2018-11-23T18:51:44.993Z,307.60
2018-11-23T18:54:13.424Z,317.32
2018-11-23T18:56:41.741Z,297.63
2018-11-23T18:59:10.186Z,301.45
2018-11-23T19:01:38.685Z,305.77
2018-11-23T19:04:07.053Z,293.65
2018-11-23T19:06:35.437Z,289.30
2018-11-23T19:09:04.452Z,298.07
2018-11-23T19:11:32.804Z,325.98
2018-11-23T19:14:01.198Z,300.90
2018-11-23T19:16:30.353Z,312.32
2018-11-23T19:18:58.706Z,296.95
2018-11-23T19:21:29.940Z,299.83
2018-11-23T19:23:58.402Z,282.90
2018-11-23T19:26:26.770Z,276.02
2018-11-23T19:28:55.098Z,287.80
2018-11-23T19:31:23.428Z,277.43
2018-11-23T19:33:51.970Z,311.23
2018-11-23T19:36:20.322Z,288.45
2018-11-23T19:38:48.734Z,277.30
2018-11-23T19:41:17.105Z,305.57
2018-11-23T19:43:45.488Z,293.97
2018-11-23T19:46:13.859Z,311.30
2018-11-23T19:48:42.303Z,289.38
2018-11-23T19:51:10.658Z,285.20
2018-11-23T19:53:39.018Z,293.40
2018-11-23T19:56:08.477Z,283.95
2018-11-23T19:58:36.820Z,286.05
2018-11-23T20:01:05.452Z,287.23
2018-11-23T20:03:33.765Z,296.30
2018-11-23T20:06:02.229Z,286.82
2018-11-23T20:08:30.665Z,308.98
2018-11-23T20:10:59.125Z,296.90
2018-11-23T20:13:27.462Z,303.37
2018-11-23T20:15:55.861Z,296.73
2018-11-23T20:18:24.192Z,281.50
2018-11-23T20:20:52.854Z,279.48
2018-11-23T20:23:22.773Z,283.62
2018-11-23T20:25:51.180Z,266.30
2018-11-23T20:28:19.703Z,283.00
2018-11-23T20:30:48.040Z,273.62
2018-11-23T20:33:16.365Z,292.77
2018-11-23T20:35:44.926Z,282.83
2018-11-23T20:38:13.367Z,283.32
2018-11-23T20:40:41.806Z,288.23
2018-11-23T20:43:10.120Z,286.50
2018-11-23T20:45:38.532Z,283.23
2018-11-23T20:48:06.868Z,285.17
2018-11-23T20:50:35.209Z,275.22
2018-11-23T20:53:03.959Z,278.05
2018-11-23T20:55:32.301Z,281.50
2018-11-23T20:58:00.689Z,264.00
2018-11-23T21:00:29.075Z,267.23
2018-11-23T21:02:57.408Z,274.63
2018-11-23T21:05:25.756Z,285.48
2018-11-23T21:07:54.082Z,269.85
2018-11-23T21:10:23.642Z,281.57
2018-11-23T21:12:52.104Z,258.15
2018-11-23T21:15:24.714Z,251.37
2018-11-23T21:17:53.073Z,256.52
2018-11-23T21:20:21.418Z,248.97
2018-11-23T21:22:49.752Z,246.53
2018-11-23T21:25:18.153Z,238.90
2018-11-23T21:27:55.084Z,246.70
2018-11-23T21:30:25.055Z,238.37
2018-11-23T21:32:54.574Z,257.15
2018-11-23T21:35:22.940Z,236.12
2018-11-23T21:37:51.253Z,258.13
2018-11-23T21:40:19.594Z,249.88
2018-11-23T21:42:47.916Z,240.65
2018-11-23T21:45:17.290Z,236.95
2018-11-23T21:47:45.657Z,242.10
2018-11-23T21:50:24.561Z,247.50
2018-11-23T21:52:45.364Z,248.72
2018-11-23T21:55:21.540Z,236.70
2018-11-23T21:57:49.907Z,231.63
2018-11-23T22:00:18.260Z,253.58
2018-11-23T22:02:46.585Z,225.00
2018-11-23T22:05:15.009Z,242.65
2018-11-23T22:07:43.349Z,223.13
2018-11-23T22:10:13.590Z,224.55
2018-11-23T22:12:41.961Z,231.87
2018-11-23T22:15:11.852Z,236.43
2018-11-23T22:17:40.235Z,232.07
2018-11-23T22:20:10.921Z,247.67
2018-11-23T22:22:39.326Z,245.05
2018-11-23T22:25:09.365Z,266.05
2018-11-23T22:27:37.693Z,237.72
2018-11-23T22:30:11.182Z,237.45
2018-11-23T22:32:39.505Z,236.12
2018-11-23T22:35:08.978Z,251.90
2018-11-23T22:37:37.319Z,253.52
2018-11-23T22:40:08.961Z,255.62
2018-11-23T22:42:37.315Z,227.82
2018-11-23T22:45:06.833Z,236.62
2018-11-23T22:47:35.184Z,239.08
2018-11-23T22:50:03.535Z,241.82
2018-11-23T22:52:31.869Z,257.37
2018-11-23T22:55:00.217Z,245.90
2018-11-23T22:57:28.633Z,249.05
2018-11-23T22:59:56.953Z,241.88
2018-11-23T23:02:25.285Z,250.25
2018-11-23T23:04:53.700Z,265.15
2018-11-23T23:07:22.196Z,239.80
2018-11-23T23:09:50.547Z,230.77
2018-11-23T23:12:18.916Z,236.50
2018-11-23T23:14:47.352Z,233.90
2018-11-23T23:17:15.835Z,247.60
2018-11-23T23:19:44.149Z,252.95
2018-11-23T23:22:12.491Z,260.32
2018-11-23T23:24:40.822Z,240.47
2018-11-23T23:27:09.149Z,247.75
2018-11-23T23:29:37.465Z,257.35
2018-11-23T23:32:06.060Z,243.67
2018-11-23T23:34:34.401Z,241.40
2018-11-23T23:37:02.773Z,249.10
2018-11-23T23:39:31.082Z,241.82
2018-11-23T23:41:59.440Z,253.27
2018-11-23T23:44:27.743Z,233.72
2018-11-23T23:46:56.118Z,242.47
2018-11-23T23:49:24.441Z,244.28
2018-11-23T23:51:52.789Z,245.70
2018-11-23T23:54:21.109Z,251.30
2018-11-23T23:56:49.429Z,223.28
2018-11-23T23:59:17.786Z,225.90
